Time;durP1;ratioP1;P1;durP2;ratioP2;P2;SDS_P1;SDS_P2;PMS_P1;PMS_P2;Temp;Humidity;BMP_temperature;BMP_pressure;BME280_temperature;BME280_humidity;BME280_pressure;Samples;Min_cycle;Max_cycle;Signal;HPM_P1;HPM_P2
2023/07/14 00:01:51;;;;;;;10.13;6.13;;;13.60;99.30;;;;;;5032956;28;20487;-66
2023/07/14 00:04:24;;;;;;;9.32;5.95;;;13.60;99.40;;;;;;5035501;28;20033;-65
2023/07/14 00:06:49;;;;;;;8.93;5.80;;;13.60;99.90;;;;;;5047159;28;20494;-65
2023/07/14 00:09:32;;;;;;;9.10;4.82;;;13.60;99.70;;;;;;5044881;28;20029;-65
2023/07/14 00:11:59;;;;;;;9.45;6.30;;;13.60;99.90;;;;;;5046209;28;20045;-65
2023/07/14 00:14:24;;;;;;;10.77;5.90;;;13.50;99.80;;;;;;5044544;28;20041;-65
2023/07/14 00:16:52;;;;;;;12.38;6.80;;;13.50;99.90;;;;;;5046315;28;20148;-65
2023/07/14 00:19:18;;;;;;;11.73;7.53;;;13.50;99.90;;;;;;5047531;28;20044;-66
2023/07/14 00:21:46;;;;;;;11.90;7.28;;;13.50;99.90;;;;;;5047789;28;20041;-65
2023/07/14 00:24:16;;;;;;;11.88;7.53;;;13.50;99.90;;;;;;5042431;28;20033;-65
2023/07/14 00:26:43;;;;;;;;;;;13.50;99.90;;;;;;5018622;28;20151;-65
2023/07/14 00:29:21;;;;;;;11.88;7.20;;;13.40;99.90;;;;;;5048761;28;19916;-65
2023/07/14 00:31:46;;;;;;;10.73;7.35;;;13.40;99.90;;;;;;5046407;28;20072;-65
2023/07/14 00:34:12;;;;;;;13.80;8.30;;;13.40;99.90;;;;;;5042524;28;20122;-65
2023/07/14 00:36:40;;;;;;;14.85;8.23;;;13.40;99.90;;;;;;5044880;28;20059;-65
2023/07/14 00:39:05;;;;;;;12.15;7.93;;;13.40;99.90;;;;;;5041777;28;20064;-65
2023/07/14 00:41:31;;;;;;;11.73;8.27;;;13.50;99.90;;;;;;5041666;28;20338;-65
2023/07/14 00:43:57;;;;;;;16.42;9.93;;;13.40;99.90;;;;;;5039736;28;20044;-65
2023/07/14 00:46:29;;;;;;;17.23;10.20;;;13.50;99.90;;;;;;5042417;28;20173;-65
2023/07/14 00:49:05;;;;;;;17.33;10.25;;;13.50;99.90;;;;;;5045322;28;20068;-65
2023/07/14 00:51:35;;;;;;;18.77;10.55;;;13.50;99.90;;;;;;5038605;28;20099;-65
2023/07/14 00:54:01;;;;;;;20.33;10.93;;;13.60;99.90;;;;;;5040824;28;20385;-65
2023/07/14 00:56:29;;;;;;;15.88;10.20;;;13.60;99.90;;;;;;5033967;28;20295;-66
2023/07/14 00:58:55;;;;;;;19.83;11.25;;;13.60;99.90;;;;;;5035910;28;20893;-66
2023/07/14 01:01:22;;;;;;;19.77;11.07;;;13.60;99.90;;;;;;5031368;28;20048;-66
2023/07/14 01:03:51;;;;;;;22.85;12.18;;;13.70;99.90;;;;;;5034343;28;20069;-65
2023/07/14 01:06:21;;;;;;;21.15;11.52;;;13.70;99.90;;;;;;5031028;28;20115;-65
2023/07/14 01:08:59;;;;;;;;;;;13.70;99.90;;;;;;5035168;28;20041;-65
2023/07/14 01:11:45;;;;;;;17.60;11.98;;;13.80;99.90;;;;;;5042773;28;20005;-65
2023/07/14 01:14:19;;;;;;;19.23;12.15;;;13.70;99.90;;;;;;5044383;28;20481;-65
2023/07/14 01:16:47;;;;;;;19.38;12.32;;;13.70;99.90;;;;;;5038778;28;20045;-65
2023/07/14 01:19:37;;;;;;;23.92;11.82;;;13.70;99.90;;;;;;5037474;28;20164;-65
2023/07/14 01:22:24;;;;;;;20.95;10.93;;;13.70;99.90;;;;;;5029042;28;20061;-65
2023/07/14 01:25:23;;;;;;;18.58;11.32;;;13.70;99.90;;;;;;5032822;28;20099;-65
2023/07/14 01:27:49;;;;;;;21.02;11.45;;;13.70;99.90;;;;;;5039165;28;20180;-65
2023/07/14 01:30:16;;;;;;;18.67;11.63;;;13.70;99.90;;;;;;5046948;28;20138;-65
2023/07/14 01:32:46;;;;;;;17.70;11.45;;;13.70;99.90;;;;;;5048704;28;20102;-66
2023/07/14 01:35:13;;;;;;;20.10;11.65;;;13.60;99.90;;;;;;5044021;28;20065;-66
2023/07/14 01:37:39;;;;;;;17.90;11.75;;;13.70;99.90;;;;;;5037282;28;20085;-66
2023/07/14 01:40:08;;;;;;;18.80;11.50;;;13.60;99.90;;;;;;5047664;28;20330;-66
2023/07/14 01:42:34;;;;;;;18.50;10.88;;;13.60;99.90;;;;;;5031177;28;20244;-66
2023/07/14 01:45:00;;;;;;;17.63;10.93;;;13.60;99.90;;;;;;5047314;28;20039;-66
2023/07/14 01:47:28;;;;;;;16.23;10.90;;;13.50;99.90;;;;;;5031991;28;20103;-66
2023/07/14 01:49:54;;;;;;;14.80;9.85;;;13.50;99.90;;;;;;5043136;28;20474;-65
2023/07/14 01:52:27;;;;;;;18.17;11.43;;;13.50;99.90;;;;;;5042072;28;20037;-65
2023/07/14 01:54:57;;;;;;;18.77;11.43;;;13.40;99.90;;;;;;5043588;28;20370;-65
2023/07/14 01:57:25;;;;;;;20.33;12.23;;;13.50;99.90;;;;;;5045605;28;20087;-66
2023/07/14 01:59:57;;;;;;;18.02;11.25;;;13.50;99.90;;;;;;5044055;28;20103;-65
2023/07/14 02:02:30;;;;;;;21.67;11.88;;;13.50;99.90;;;;;;5044896;28;20033;-65
2023/07/14 02:04:56;;;;;;;20.55;11.23;;;13.50;99.90;;;;;;5044448;28;20034;-66
2023/07/14 02:07:22;;;;;;;14.52;10.07;;;13.60;99.90;;;;;;5038137;28;20045;-65
2023/07/14 02:09:48;;;;;;;20.08;11.20;;;13.60;99.90;;;;;;5039744;28;20603;-65
2023/07/14 02:12:21;;;;;;;18.92;11.80;;;13.60;99.90;;;;;;5042671;28;20576;-66
2023/07/14 02:14:52;;;;;;;21.38;11.63;;;13.60;99.90;;;;;;5037052;28;20100;-66
2023/07/14 02:17:26;;;;;;;17.65;10.38;;;13.60;99.90;;;;;;5015941;28;20490;-66
2023/07/14 02:19:53;;;;;;;19.30;10.82;;;13.60;99.90;;;;;;5037886;28;20079;-66
2023/07/14 02:22:19;;;;;;;19.35;11.32;;;13.60;99.90;;;;;;5037866;28;20037;-66
2023/07/14 02:24:47;;;;;;;17.83;11.18;;;13.70;99.90;;;;;;5045749;28;20072;-65
2023/07/14 02:27:12;;;;;;;19.33;10.68;;;13.70;99.90;;;;;;5044437;28;20354;-65
2023/07/14 02:29:38;;;;;;;20.20;11.02;;;13.60;99.90;;;;;;5039843;28;20057;-65
2023/07/14 02:32:19;;;;;;;19.42;10.85;;;13.60;99.90;;;;;;5040296;28;20080;-65
2023/07/14 02:34:55;;;;;;;16.52;10.10;;;13.60;99.90;;;;;;5041488;28;20120;-65
2023/07/14 02:37:51;;;;;;;18.85;10.75;;;13.60;99.90;;;;;;5034664;28;20117;-65
2023/07/14 02:40:18;;;;;;;18.63;11.65;;;13.60;99.90;;;;;;5030282;28;20033;-65
2023/07/14 02:42:43;;;;;;;16.83;10.90;;;13.50;99.90;;;;;;5045439;28;20060;-66
2023/07/14 02:45:09;;;;;;;18.83;11.68;;;13.50;99.90;;;;;;5043133;28;20044;-65
2023/07/14 02:47:39;;;;;;;21.58;12.07;;;13.50;99.90;;;;;;5037639;28;20033;-65
2023/07/14 02:50:05;;;;;;;;;;;13.40;99.90;;;;;;5041142;28;20057;-65
2023/07/14 02:52:31;;;;;;;14.38;10.00;;;13.50;99.90;;;;;;5028672;28;20443;-65
2023/07/14 02:54:57;;;;;;;17.95;11.32;;;13.50;99.90;;;;;;5046958;28;20048;-66
2023/07/14 02:57:22;;;;;;;14.40;10.23;;;13.50;99.90;;;;;;5039159;28;20033;-65
2023/07/14 02:59:48;;;;;;;14.82;9.88;;;13.40;99.90;;;;;;5034075;28;20211;-66
2023/07/14 03:02:13;;;;;;;15.13;9.90;;;13.50;99.90;;;;;;5028609;28;20048;-66
2023/07/14 03:04:39;;;;;;;19.77;10.32;;;13.50;99.90;;;;;;5044991;28;20051;-66
2023/07/14 03:07:05;;;;;;;19.13;9.82;;;13.50;99.90;;;;;;5043635;28;20404;-65
2023/07/14 03:09:31;;;;;;;13.15;9.05;;;13.60;99.90;;;;;;5024181;28;20036;-66
2023/07/14 03:11:56;;;;;;;18.00;9.55;;;13.60;99.90;;;;;;5042904;28;20042;-66
2023/07/14 03:14:22;;;;;;;19.92;10.77;;;13.60;99.90;;;;;;5030848;28;20037;-67
2023/07/14 03:16:47;;;;;;;13.60;9.10;;;13.60;99.90;;;;;;5032091;28;20160;-65
2023/07/14 03:19:13;;;;;;;16.30;9.55;;;13.60;99.90;;;;;;5041222;28;20040;-66
2023/07/14 03:21:39;;;;;;;15.73;8.98;;;13.60;99.90;;;;;;5042327;28;20118;-65
2023/07/14 03:24:05;;;;;;;14.43;9.50;;;13.60;99.90;;;;;;5036646;28;20484;-66
2023/07/14 03:26:31;;;;;;;15.02;8.82;;;13.50;99.90;;;;;;5042668;28;20124;-66
2023/07/14 03:28:57;;;;;;;18.88;9.68;;;13.60;99.90;;;;;;5049555;28;20116;-65
2023/07/14 03:31:22;;;;;;;18.55;9.27;;;13.60;99.90;;;;;;5047854;28;20120;-66
2023/07/14 03:33:48;;;;;;;17.90;9.90;;;13.60;99.90;;;;;;5036492;28;20049;-66
2023/07/14 03:36:14;;;;;;;16.55;9.00;;;13.50;99.90;;;;;;5039047;28;20037;-65
2023/07/14 03:38:44;;;;;;;13.60;8.50;;;13.50;99.90;;;;;;5037524;28;20049;-66
2023/07/14 03:41:12;;;;;;;18.13;8.97;;;13.40;99.90;;;;;;5047424;28;20037;-66
2023/07/14 03:43:37;;;;;;;13.82;9.00;;;13.30;99.90;;;;;;5021635;28;20052;-66
2023/07/14 03:46:03;;;;;;;17.85;8.57;;;13.30;99.90;;;;;;5034322;28;20041;-65
2023/07/14 03:48:29;;;;;;;15.85;8.93;;;13.20;99.90;;;;;;5045196;28;20131;-65
2023/07/14 03:51:05;;;;;;;15.45;9.40;;;13.20;99.90;;;;;;5037339;28;20045;-65
2023/07/14 03:53:30;;;;;;;13.60;8.85;;;13.20;99.90;;;;;;5038451;28;20171;-65
2023/07/14 03:55:57;;;;;;;15.40;8.73;;;13.10;99.90;;;;;;5037829;28;20128;-66
2023/07/14 03:58:23;;;;;;;14.38;9.00;;;13.20;99.90;;;;;;5034219;28;20065;-65
2023/07/14 04:00:48;;;;;;;13.35;8.18;;;13.10;99.90;;;;;;5040801;28;20144;-66
2023/07/14 04:03:15;;;;;;;15.75;8.43;;;13.10;99.90;;;;;;5040010;28;20040;-65
2023/07/14 04:05:45;;;;;;;16.63;9.10;;;13.10;99.90;;;;;;5030925;28;20111;-65
2023/07/14 04:08:11;;;;;;;16.42;8.68;;;13.00;99.90;;;;;;5030137;28;20065;-65
2023/07/14 04:10:36;;;;;;;18.10;8.63;;;13.10;99.90;;;;;;5034901;28;20080;-65
2023/07/14 04:13:02;;;;;;;14.93;8.93;;;13.10;99.90;;;;;;5045218;28;20434;-65
2023/07/14 04:15:28;;;;;;;16.25;8.38;;;13.10;99.90;;;;;;5046034;28;20049;-65
2023/07/14 04:17:53;;;;;;;13.77;8.38;;;13.20;99.90;;;;;;5030367;28;20040;-65
2023/07/14 04:20:19;;;;;;;14.60;8.45;;;13.20;99.90;;;;;;5047839;28;20058;-66
2023/07/14 04:22:45;;;;;;;14.00;8.68;;;13.20;99.90;;;;;;5046280;28;20118;-66
2023/07/14 04:25:11;;;;;;;15.23;9.27;;;13.20;99.90;;;;;;5046836;28;20033;-66
2023/07/14 04:27:37;;;;;;;15.35;8.55;;;13.20;99.90;;;;;;5048841;28;20527;-65
2023/07/14 04:30:04;;;;;;;17.63;9.13;;;13.20;99.90;;;;;;5047217;28;20459;-66
2023/07/14 04:32:30;;;;;;;15.02;8.63;;;13.20;99.90;;;;;;5047247;28;20331;-65
2023/07/14 04:34:56;;;;;;;13.02;8.77;;;13.30;99.90;;;;;;5045848;28;20079;-65
2023/07/14 04:37:22;;;;;;;15.55;8.00;;;13.30;99.90;;;;;;5037186;28;20389;-66
2023/07/14 04:39:47;;;;;;;14.10;7.53;;;13.40;99.90;;;;;;5031132;28;20037;-66
2023/07/14 04:42:13;;;;;;;14.40;8.40;;;13.40;99.90;;;;;;5036911;28;20352;-65
2023/07/14 04:44:39;;;;;;;14.05;7.93;;;13.50;99.90;;;;;;5045108;28;20036;-65
2023/07/14 04:47:05;;;;;;;14.05;7.53;;;13.60;99.90;;;;;;5033681;28;20037;-65
2023/07/14 04:49:30;;;;;;;14.50;7.70;;;13.60;99.90;;;;;;5044443;28;20114;-66
2023/07/14 04:51:56;;;;;;;11.52;7.80;;;13.60;99.90;;;;;;5036163;28;20041;-65
2023/07/14 04:54:23;;;;;;;12.55;7.85;;;13.70;99.90;;;;;;5035520;28;20388;-65
2023/07/14 04:56:50;;;;;;;12.75;7.80;;;13.70;99.90;;;;;;5036930;28;20492;-66
2023/07/14 04:59:16;;;;;;;12.30;7.95;;;13.80;99.90;;;;;;5035253;28;20045;-65
2023/07/14 05:01:42;;;;;;;13.25;8.40;;;13.90;99.90;;;;;;5050300;28;20043;-66
2023/07/14 05:04:07;;;;;;;14.68;7.95;;;13.90;99.90;;;;;;5024881;28;20416;-66
2023/07/14 05:06:33;;;;;;;13.77;7.88;;;13.90;99.90;;;;;;5037080;28;20045;-65
2023/07/14 05:08:59;;;;;;;15.73;9.18;;;14.00;99.90;;;;;;5043552;28;20033;-65
2023/07/14 05:11:25;;;;;;;14.27;7.63;;;14.10;99.90;;;;;;5037245;28;20033;-66
2023/07/14 05:13:52;;;;;;;14.98;7.82;;;14.20;99.90;;;;;;5037797;28;20048;-66
2023/07/14 05:16:18;;;;;;;16.63;8.10;;;14.30;99.90;;;;;;5046435;28;20501;-66
2023/07/14 05:18:44;;;;;;;14.25;7.50;;;14.40;99.90;;;;;;5035954;28;20106;-66
2023/07/14 05:21:09;;;;;;;10.55;7.38;;;14.60;99.90;;;;;;5037936;28;20037;-66
2023/07/14 05:23:35;;;;;;;14.43;8.30;;;14.70;99.90;;;;;;5033198;28;20147;-66
2023/07/14 05:26:01;;;;;;;14.13;8.00;;;14.90;99.90;;;;;;5038915;28;20037;-66
2023/07/14 05:28:27;;;;;;;14.93;8.70;;;15.10;99.90;;;;;;5036554;28;20497;-66
2023/07/14 05:30:53;;;;;;;11.90;8.23;;;15.20;99.90;;;;;;5047765;28;20045;-66
2023/07/14 05:33:20;;;;;;;12.32;8.35;;;15.30;99.90;;;;;;5048269;28;20120;-66
2023/07/14 05:35:46;;;;;;;13.05;8.13;;;15.40;99.90;;;;;;5051213;28;20052;-66
2023/07/14 05:38:13;;;;;;;13.52;7.63;;;15.50;99.90;;;;;;5041685;28;20112;-67
2023/07/14 05:40:39;;;;;;;12.68;8.77;;;15.60;99.90;;;;;;5034449;28;20045;-67
2023/07/14 05:43:05;;;;;;;12.98;7.93;;;15.70;99.90;;;;;;5035648;28;20492;-66
2023/07/14 05:45:31;;;;;;;13.65;8.38;;;15.80;99.90;;;;;;5039580;28;20037;-66
2023/07/14 05:47:58;;;;;;;14.13;8.75;;;16.00;99.90;;;;;;5020534;28;20036;-67
2023/07/14 05:50:24;;;;;;;17.20;8.98;;;15.90;99.50;;;;;;5031692;28;20053;-66
2023/07/14 05:52:50;;;;;;;15.93;8.93;;;15.90;99.50;;;;;;5037165;28;20056;-66
2023/07/14 05:55:15;;;;;;;15.65;8.98;;;16.00;99.40;;;;;;5038008;28;20042;-66
2023/07/14 05:57:43;;;;;;;15.15;9.00;;;16.00;99.00;;;;;;5038351;28;20040;-66
2023/07/14 06:00:16;;;;;;;13.15;8.63;;;16.00;98.80;;;;;;5041385;28;20029;-66
2023/07/14 06:02:43;;;;;;;16.15;9.35;;;16.00;98.60;;;;;;5042235;28;20101;-66
2023/07/14 06:05:10;;;;;;;14.82;8.48;;;16.00;98.40;;;;;;5058168;28;20055;-66
2023/07/14 06:07:37;;;;;;;16.30;9.15;;;16.00;98.30;;;;;;5039966;28;20550;-65
2023/07/14 06:10:03;;;;;;;17.02;9.68;;;16.00;98.30;;;;;;5042408;28;20457;-66
2023/07/14 06:12:29;;;;;;;13.23;8.70;;;16.00;98.40;;;;;;5045320;28;20033;-67
2023/07/14 06:14:55;;;;;;;14.75;9.40;;;16.00;98.40;;;;;;5038925;28;21018;-66
2023/07/14 06:17:21;;;;;;;14.63;9.00;;;16.00;98.40;;;;;;5046700;28;20075;-66
2023/07/14 06:19:46;;;;;;;13.70;8.40;;;16.30;98.50;;;;;;5043165;28;20139;-68
2023/07/14 06:22:13;;;;;;;13.63;9.00;;;16.40;98.60;;;;;;5042230;28;20044;-66
2023/07/14 06:24:40;;;;;;;17.88;10.27;;;16.60;98.50;;;;;;5040377;28;20105;-67
2023/07/14 06:27:06;;;;;;;12.07;9.07;;;16.60;98.30;;;;;;5049173;28;20086;-67
2023/07/14 06:29:33;;;;;;;16.60;9.10;;;16.50;97.70;;;;;;5043758;28;20044;-66
2023/07/14 06:31:59;;;;;;;14.48;9.27;;;16.50;97.80;;;;;;5045103;28;20412;-66
2023/07/14 06:34:25;;;;;;;18.17;9.50;;;16.40;97.70;;;;;;5034641;28;20033;-66
2023/07/14 06:36:51;;;;;;;19.08;9.50;;;16.50;97.70;;;;;;5032298;28;20473;-67
2023/07/14 06:39:17;;;;;;;14.70;9.40;;;16.80;98.00;;;;;;5032781;28;20134;-66
2023/07/14 06:41:43;;;;;;;14.40;8.68;;;17.20;97.90;;;;;;5042381;28;20078;-67
2023/07/14 06:44:09;;;;;;;13.40;8.80;;;17.50;97.30;;;;;;5036646;28;20041;-67
2023/07/14 06:46:35;;;;;;;11.85;8.40;;;17.90;97.00;;;;;;5025205;28;21622;-66
2023/07/14 06:49:01;;;;;;;12.10;7.95;;;18.20;96.70;;;;;;5022493;28;20053;-66
2023/07/14 06:51:27;;;;;;;16.48;7.93;;;18.50;95.90;;;;;;5021429;28;20433;-67
2023/07/14 06:53:52;;;;;;;10.70;7.60;;;18.80;95.30;;;;;;5029284;28;20049;-66
2023/07/14 06:56:18;;;;;;;11.00;7.45;;;18.90;93.90;;;;;;5025478;28;20068;-67
2023/07/14 06:58:44;;;;;;;11.73;6.85;;;19.20;93.10;;;;;;5024581;28;20041;-66
2023/07/14 07:01:09;;;;;;;10.75;6.20;;;19.30;92.20;;;;;;5025122;28;20084;-67
2023/07/14 07:03:35;;;;;;;12.43;6.03;;;19.70;91.70;;;;;;5026651;28;20411;-68
2023/07/14 07:06:01;;;;;;;8.77;5.15;;;19.90;90.80;;;;;;5028553;28;20087;-68
2023/07/14 07:08:27;;;;;;;10.82;4.70;;;20.00;89.00;;;;;;5027254;28;20073;-68
2023/07/14 07:10:53;;;;;;;8.15;5.00;;;20.00;87.30;;;;;;5026728;28;20124;-70
2023/07/14 07:13:19;;;;;;;12.20;5.45;;;20.10;83.00;;;;;;5023842;28;20312;-68
2023/07/14 07:15:45;;;;;;;6.75;4.63;;;20.10;82.90;;;;;;5021269;28;20095;-67
2023/07/14 07:18:10;;;;;;;6.75;4.45;;;20.40;81.60;;;;;;5027611;28;20141;-66
2023/07/14 07:20:38;;;;;;;8.65;4.53;;;20.60;79.90;;;;;;5022391;28;20040;-67
2023/07/14 07:23:03;;;;;;;9.77;4.60;;;20.70;76.70;;;;;;5015522;28;20438;-65
2023/07/14 07:25:29;;;;;;;8.20;4.43;;;20.80;77.00;;;;;;5028440;28;20045;-66
2023/07/14 07:27:55;;;;;;;6.38;4.07;;;21.00;76.30;;;;;;5028320;28;20041;-70
2023/07/14 07:30:20;;;;;;;4.88;3.05;;;21.00;71.30;;;;;;5020794;28;20041;-69
2023/07/14 07:32:47;;;;;;;4.85;2.78;;;21.20;74.70;;;;;;5025929;28;20045;-70
2023/07/14 07:35:13;;;;;;;5.53;2.88;;;21.20;72.80;;;;;;5026344;28;20182;-69
2023/07/14 07:37:39;;;;;;;6.90;3.33;;;21.30;71.60;;;;;;5022361;28;20497;-70
2023/07/14 07:40:06;;;;;;;4.68;3.50;;;21.80;71.30;;;;;;5025484;28;20041;-72
2023/07/14 07:42:34;;;;;;;7.38;4.38;;;21.50;69.60;;;;;;5021700;28;20136;-70
2023/07/14 07:45:00;;;;;;;6.50;3.85;;;21.60;66.60;;;;;;5022029;28;20048;-68
2023/07/14 07:47:26;;;;;;;6.57;4.00;;;21.90;68.60;;;;;;5019096;28;20037;-70
2023/07/14 07:49:52;;;;;;;7.05;4.47;;;21.70;67.10;;;;;;5037918;28;20473;-69
2023/07/14 07:52:18;;;;;;;8.93;3.97;;;21.70;67.50;;;;;;5049226;28;20099;-68
2023/07/14 07:54:44;;;;;;;6.55;3.75;;;21.70;66.80;;;;;;5037462;28;20044;-72
2023/07/14 07:57:10;;;;;;;5.68;3.95;;;21.60;66.70;;;;;;5037249;28;20053;-67
2023/07/14 07:59:36;;;;;;;6.05;3.30;;;22.20;65.60;;;;;;5038223;28;20083;-69
2023/07/14 08:02:03;;;;;;;5.63;3.00;;;22.10;64.60;;;;;;5032455;28;20046;-70
2023/07/14 08:04:28;;;;;;;6.22;3.17;;;22.30;64.00;;;;;;5037597;28;20127;-66
2023/07/14 08:06:54;;;;;;;6.68;3.95;;;22.50;62.60;;;;;;5039963;28;20129;-71
2023/07/14 08:09:20;;;;;;;5.70;3.38;;;22.30;60.40;;;;;;5034565;28;20154;-70
2023/07/14 08:11:47;;;;;;;5.15;3.30;;;22.60;62.10;;;;;;5033457;28;20045;-69
2023/07/14 08:14:17;;;;;;;5.47;3.97;;;23.00;61.60;;;;;;5039751;28;20037;-72
2023/07/14 08:16:43;;;;;;;5.05;3.50;;;23.10;58.90;;;;;;5039065;28;20048;-68
2023/07/14 08:19:10;;;;;;;5.13;3.10;;;23.40;60.40;;;;;;5032760;28;20129;-71
2023/07/14 08:21:37;;;;;;;3.40;3.10;;;23.10;59.20;;;;;;5044969;28;20413;-71
2023/07/14 08:24:04;;;;;;;5.38;2.90;;;23.30;58.40;;;;;;5034589;28;20045;-70
2023/07/14 08:26:32;;;;;;;7.55;3.45;;;23.50;58.30;;;;;;5017024;28;20044;-70
2023/07/14 08:28:58;;;;;;;5.70;3.80;;;23.90;56.90;;;;;;5032187;28;20170;-71
2023/07/14 08:31:24;;;;;;;5.57;3.00;;;24.30;56.60;;;;;;5033263;28;20128;-70
2023/07/14 08:33:51;;;;;;;4.97;3.33;;;24.20;55.80;;;;;;5039789;28;20041;-71
2023/07/14 08:36:17;;;;;;;5.45;3.63;;;23.90;54.80;;;;;;5041792;28;20041;-72
2023/07/14 08:38:43;;;;;;;5.15;2.72;;;23.90;53.70;;;;;;5024781;28;20095;-72
2023/07/14 08:41:33;;;;;;;6.53;3.30;;;23.70;54.50;;;;;;5043488;28;20041;-72
2023/07/14 08:44:17;;;;;;;5.93;3.00;;;23.40;54.10;;;;;;5033133;28;20501;-71
2023/07/14 08:47:01;;;;;;;5.45;3.10;;;23.20;55.00;;;;;;5037150;28;20379;-70
2023/07/14 08:49:56;;;;;;;8.00;3.65;;;23.80;54.20;;;;;;5042212;28;20103;-70
2023/07/14 08:52:27;;;;;;;8.93;3.83;;;23.60;50.80;;;;;;5042497;28;20048;-72
2023/07/14 08:55:05;;;;;;;6.40;4.13;;;24.00;51.80;;;;;;5042175;28;20111;-70
2023/07/14 08:57:39;;;;;;;5.50;3.60;;;25.10;50.80;;;;;;5041168;28;20040;-69
2023/07/14 09:00:09;;;;;;;4.75;3.25;;;24.90;49.40;;;;;;5043092;28;20041;-71
2023/07/14 09:02:37;;;;;;;6.55;2.65;;;25.70;49.90;;;;;;5035090;28;20077;-68
2023/07/14 09:05:10;;;;;;;5.38;2.70;;;25.80;49.20;;;;;;5032060;28;20041;-69
2023/07/14 09:07:37;;;;;;;5.35;3.03;;;26.30;47.60;;;;;;5038869;28;20047;-69
2023/07/14 09:10:03;;;;;;;4.15;2.35;;;26.70;46.60;;;;;;5037001;28;20041;-72
2023/07/14 09:13:14;;;;;;;3.75;2.10;;;27.10;46.00;;;;;;5037230;28;20045;-71
2023/07/14 09:15:41;;;;;;;3.83;2.00;;;27.40;44.30;;;;;;5032230;28;20527;-69
2023/07/14 09:18:46;;;;;;;5.50;2.42;;;27.10;44.40;;;;;;5032952;28;20156;-71
2023/07/14 09:21:13;;;;;;;4.05;2.30;;;26.50;40.50;;;;;;5030078;28;20069;-70
2023/07/14 09:24:20;;;;;;;3.97;2.13;;;25.50;45.60;;;;;;5036814;28;20490;-71
2023/07/14 09:26:53;;;;;;;2.65;2.13;;;25.00;46.30;;;;;;5040777;28;20091;-72
2023/07/14 09:29:44;;;;;;;4.57;1.75;;;25.30;46.00;;;;;;5041374;28;20427;-72
2023/07/14 09:32:34;;;;;;;5.47;2.08;;;25.00;46.20;;;;;;5033328;28;20043;-71
2023/07/14 09:35:18;;;;;;;2.80;2.00;;;25.70;45.10;;;;;;5040387;28;20087;-72
2023/07/14 09:37:57;;;;;;;3.10;2.35;;;25.40;46.20;;;;;;5039480;28;20057;-71
2023/07/14 09:40:32;;;;;;;3.17;2.17;;;25.30;46.10;;;;;;5047767;28;20059;-72
2023/07/14 09:42:59;;;;;;;6.75;1.60;;;25.00;45.90;;;;;;5050868;28;20045;-71
2023/07/14 09:45:32;;;;;;;3.22;1.75;;;25.70;45.70;;;;;;5038886;28;20518;-72
2023/07/14 09:47:58;;;;;;;3.15;1.77;;;26.40;45.00;;;;;;5040900;28;20040;-72
2023/07/14 09:50:25;;;;;;;3.45;1.92;;;27.20;44.00;;;;;;5030371;28;20077;-72
2023/07/14 09:52:57;;;;;;;3.15;1.77;;;28.00;42.20;;;;;;5030803;28;20048;-70
2023/07/14 09:55:24;;;;;;;5.40;2.38;;;28.30;40.10;;;;;;5036539;28;20055;-71
2023/07/14 09:57:53;;;;;;;2.78;1.90;;;28.20;40.80;;;;;;5017436;28;20179;-71
2023/07/14 10:00:27;;;;;;;5.22;2.30;;;28.20;39.90;;;;;;5036773;28;20052;-70
2023/07/14 10:03:05;;;;;;;3.53;2.08;;;28.00;39.20;;;;;;5046482;28;20040;-72
2023/07/14 10:05:35;;;;;;;5.20;2.00;;;27.90;39.70;;;;;;5036726;28;20443;-72
2023/07/14 10:08:04;;;;;;;3.22;2.20;;;27.40;39.90;;;;;;5024373;28;20033;-72
2023/07/14 10:10:32;;;;;;;3.85;2.13;;;26.70;40.40;;;;;;5041849;28;20048;-69
2023/07/14 10:13:13;;;;;;;5.53;2.33;;;26.00;42.30;;;;;;5045389;28;20065;-71
2023/07/14 10:15:39;;;;;;;4.70;2.35;;;25.00;43.40;;;;;;5038050;28;20057;-72
2023/07/14 10:18:12;;;;;;;4.57;2.53;;;24.40;44.70;;;;;;5027584;28;20119;-71
2023/07/14 10:20:39;;;;;;;3.42;2.10;;;24.50;45.10;;;;;;5045430;28;20135;-69
2023/07/14 10:23:16;;;;;;;4.65;2.20;;;25.70;44.30;;;;;;5036324;28;20037;-70
2023/07/14 10:25:49;;;;;;;4.90;2.30;;;27.10;42.80;;;;;;5037516;28;20509;-71
2023/07/14 10:28:23;;;;;;;5.25;2.40;;;27.40;38.50;;;;;;5037965;28;20040;-70
2023/07/14 10:30:55;;;;;;;5.22;2.67;;;28.50;38.40;;;;;;5039230;28;20127;-68
2023/07/14 10:33:32;;;;;;;4.22;2.33;;;28.60;38.50;;;;;;5042590;28;20040;-68
2023/07/14 10:36:08;;;;;;;6.93;2.47;;;28.60;37.30;;;;;;5049467;28;20048;-70
2023/07/14 10:38:46;;;;;;;3.65;2.53;;;28.90;37.40;;;;;;5047072;28;20381;-72
2023/07/14 10:41:13;;;;;;;6.60;2.80;;;29.40;36.50;;;;;;5049806;28;20041;-70
2023/07/14 10:43:46;;;;;;;4.85;2.65;;;28.70;36.30;;;;;;5047920;28;20051;-71
2023/07/14 10:46:40;;;;;;;3.08;2.03;;;28.20;36.30;;;;;;5046121;28;20045;-71
2023/07/14 10:49:15;;;;;;;3.33;1.85;;;27.60;38.20;;;;;;5040218;28;20251;-70
2023/07/14 10:51:57;;;;;;;3.33;2.03;;;26.10;39.40;;;;;;5031419;28;20049;-72
2023/07/14 10:54:45;;;;;;;4.47;2.42;;;26.50;40.10;;;;;;5047127;28;20045;-71
2023/07/14 10:57:49;;;;;;;4.90;2.70;;;25.90;40.00;;;;;;5028264;28;20117;-72
2023/07/14 11:00:21;;;;;;;4.13;2.67;;;26.30;41.00;;;;;;5019840;28;20049;-71
2023/07/14 11:03:15;;;;;;;3.78;2.35;;;26.70;40.20;;;;;;5048595;28;20080;-72
2023/07/14 11:05:45;;;;;;;3.72;2.70;;;26.10;40.50;;;;;;5045715;28;20095;-71
2023/07/14 11:08:10;;;;;;;;;;;25.60;41.70;;;;;;5049207;28;20048;-70
2023/07/14 11:11:00;;;;;;;4.55;2.88;;;25.00;41.60;;;;;;5040934;28;19919;-70
2023/07/14 11:13:58;;;;;;;4.57;3.10;;;24.40;43.30;;;;;;5026218;28;20407;-71
2023/07/14 11:16:32;;;;;;;6.15;2.80;;;24.30;44.40;;;;;;5033819;28;20056;-70
2023/07/14 11:19:06;;;;;;;3.78;2.38;;;24.00;44.70;;;;;;5046597;28;20506;-70
2023/07/14 11:21:47;;;;;;;3.72;2.33;;;24.30;44.20;;;;;;5049900;28;20083;-70
2023/07/14 11:24:12;;;;;;;;;;;24.60;44.00;;;;;;5044328;28;20492;-71
2023/07/14 11:26:50;;;;;;;5.85;2.75;;;24.40;44.50;;;;;;5047606;28;19921;-71
2023/07/14 11:29:20;;;;;;;4.43;2.90;;;24.50;44.10;;;;;;5047610;28;20365;-72
2023/07/14 11:31:55;;;;;;;4.03;2.47;;;24.00;43.40;;;;;;5047474;28;20103;-70
2023/07/14 11:34:26;;;;;;;5.78;2.38;;;24.00;44.30;;;;;;5030163;28;20051;-68
2023/07/14 11:37:14;;;;;;;5.85;2.53;;;24.10;43.30;;;;;;5030106;28;20083;-70
2023/07/14 11:39:51;;;;;;;3.53;2.13;;;24.20;42.60;;;;;;5040917;28;20052;-70
2023/07/14 11:42:20;;;;;;;5.72;3.08;;;24.30;42.80;;;;;;5048654;28;20068;-71
2023/07/14 11:44:48;;;;;;;3.80;2.20;;;24.10;43.70;;;;;;5031394;28;20849;-69
2023/07/14 11:47:38;;;;;;;3.97;2.45;;;24.40;43.70;;;;;;5031296;28;20345;-70
2023/07/14 11:50:18;;;;;;;4.45;2.45;;;24.40;43.20;;;;;;5011657;28;20485;-71
2023/07/14 11:53:06;;;;;;;3.28;2.22;;;24.60;44.50;;;;;;5028751;28;20053;-70
2023/07/14 11:55:35;;;;;;;4.45;2.70;;;24.70;43.50;;;;;;5032194;28;20059;-69
2023/07/14 11:58:27;;;;;;;3.35;2.15;;;24.70;42.70;;;;;;5049360;28;20041;-70
2023/07/14 12:01:00;;;;;;;3.72;2.47;;;24.60;42.30;;;;;;5031154;28;20130;-68
2023/07/14 12:03:32;;;;;;;6.30;2.15;;;24.40;42.70;;;;;;5036159;28;20063;-68
2023/07/14 12:06:20;;;;;;;3.17;2.10;;;24.50;43.00;;;;;;5035094;28;20134;-68
2023/07/14 12:09:09;;;;;;;4.97;2.15;;;25.00;43.10;;;;;;5033758;28;20092;-71
2023/07/14 12:11:41;;;;;;;4.38;2.30;;;25.10;42.30;;;;;;5041898;28;20044;-68
2023/07/14 12:14:31;;;;;;;3.35;2.05;;;25.30;40.20;;;;;;5043624;28;20123;-70
2023/07/14 12:16:59;;;;;;;2.80;1.80;;;25.10;40.40;;;;;;5033187;28;20029;-69
2023/07/14 12:19:27;;;;;;;4.43;2.10;;;25.30;41.10;;;;;;5044539;28;20076;-71
2023/07/14 12:21:59;;;;;;;5.93;1.80;;;25.00;39.20;;;;;;5033214;28;20037;-68
2023/07/14 12:24:31;;;;;;;3.45;2.17;;;24.50;41.90;;;;;;5061704;28;20120;-67
2023/07/14 12:27:17;;;;;;;2.70;2.13;;;24.30;41.50;;;;;;5032672;28;20128;-69
2023/07/14 12:29:43;;;;;;;4.03;2.10;;;24.10;43.20;;;;;;5035800;28;20623;-68
2023/07/14 12:32:18;;;;;;;3.08;2.00;;;24.60;42.80;;;;;;5031991;28;20045;-68
2023/07/14 12:34:45;;;;;;;3.72;1.90;;;24.50;43.00;;;;;;5034464;28;20060;-69
2023/07/14 12:37:16;;;;;;;3.72;2.10;;;24.50;42.80;;;;;;5020421;28;20061;-69
2023/07/14 12:39:46;;;;;;;3.90;2.17;;;24.50;43.30;;;;;;5036765;28;20080;-69
2023/07/14 12:42:13;;;;;;;5.05;2.30;;;24.40;43.50;;;;;;5034083;28;20090;-68
2023/07/14 12:44:39;;;;;;;3.25;1.83;;;24.40;43.70;;;;;;5033099;28;20050;-69
2023/07/14 12:47:12;;;;;;;3.60;2.15;;;24.30;43.70;;;;;;5017853;28;20462;-70
2023/07/14 12:49:42;;;;;;;5.47;1.90;;;24.40;43.70;;;;;;5040934;28;20053;-68
2023/07/14 12:52:27;;;;;;;4.68;2.15;;;24.20;44.60;;;;;;5032280;28;20041;-69
2023/07/14 12:54:59;;;;;;;4.35;1.90;;;24.20;45.20;;;;;;5028297;28;20048;-69
2023/07/14 12:57:24;;;;;;;5.18;2.58;;;24.70;44.40;;;;;;5041787;28;20075;-68